createdAt,value
2018-09-30T00:00:56.971Z,6.90
2018-09-30T00:05:59.968Z,6.90
2018-09-30T00:11:03.085Z,7.00
2018-09-30T00:16:06.132Z,7.20
2018-09-30T00:21:09.226Z,7.20
2018-09-30T00:26:18.047Z,7.30
2018-09-30T00:31:21.062Z,7.40
2018-09-30T00:36:24.236Z,7.50
2018-09-30T00:41:27.363Z,7.30
2018-09-30T00:46:30.388Z,7.30
2018-09-30T00:51:33.419Z,7.30
2018-09-30T00:56:36.579Z,7.30
2018-09-30T01:01:39.731Z,7.30
2018-09-30T01:06:42.717Z,7.30
2018-09-30T01:11:45.699Z,7.40
2018-09-30T01:16:48.702Z,7.40
2018-09-30T01:21:51.779Z,7.40
2018-09-30T01:26:54.823Z,7.40
2018-09-30T01:31:57.821Z,7.30
2018-09-30T01:37:00.842Z,7.50
2018-09-30T01:42:04.124Z,7.20
2018-09-30T01:47:07.209Z,7.00
2018-09-30T01:52:56.165Z,7.00
2018-09-30T01:57:59.335Z,6.90
2018-09-30T02:03:02.320Z,6.90
2018-09-30T02:08:05.405Z,6.90
2018-09-30T02:13:08.424Z,6.90
2018-09-30T02:18:11.386Z,6.80
2018-09-30T02:23:14.359Z,6.60
2018-09-30T02:28:17.411Z,6.70
2018-09-30T02:33:20.475Z,6.60
2018-09-30T02:38:23.471Z,6.40
2018-09-30T02:43:26.472Z,6.40
2018-09-30T02:48:29.464Z,6.30
2018-09-30T02:53:32.479Z,6.30
2018-09-30T02:58:35.463Z,6.10
2018-09-30T03:03:38.612Z,6.00
2018-09-30T03:08:47.230Z,5.90
2018-09-30T03:13:50.423Z,5.90
2018-09-30T03:18:53.518Z,5.90
2018-09-30T03:23:56.729Z,5.80
2018-09-30T03:28:59.844Z,5.70
2018-09-30T03:34:03.060Z,5.80
2018-09-30T03:39:08.002Z,5.60
2018-09-30T03:44:11.073Z,5.50
2018-09-30T03:49:14.211Z,5.50
2018-09-30T03:54:17.261Z,5.50
2018-09-30T03:59:20.255Z,5.40
2018-09-30T04:04:23.272Z,5.30
2018-09-30T04:09:26.334Z,5.40
2018-09-30T04:14:29.264Z,5.30
2018-09-30T04:19:32.263Z,5.20
2018-09-30T04:24:35.468Z,5.10
2018-09-30T04:29:38.461Z,5.10
2018-09-30T04:34:41.509Z,5.10
2018-09-30T04:39:44.509Z,4.90
2018-09-30T04:44:47.474Z,4.90
2018-09-30T04:49:50.472Z,4.90
2018-09-30T04:54:53.443Z,5.20
2018-09-30T04:59:56.411Z,5.20
2018-09-30T05:04:59.415Z,5.40
2018-09-30T05:10:02.530Z,5.60
2018-09-30T05:15:05.617Z,5.80
2018-09-30T05:20:08.666Z,5.80
2018-09-30T05:25:11.649Z,5.80
2018-09-30T05:30:14.756Z,5.70
2018-09-30T05:35:17.784Z,5.70
2018-09-30T05:40:20.804Z,5.70
2018-09-30T05:45:23.792Z,5.90
2018-09-30T05:50:26.837Z,6.00
2018-09-30T05:55:29.824Z,5.80
2018-09-30T06:00:32.913Z,5.90
2018-09-30T06:05:35.953Z,6.40
2018-09-30T06:10:38.994Z,7.80
2018-09-30T06:15:42.052Z,8.50
2018-09-30T06:20:45.153Z,8.90
2018-09-30T06:25:48.283Z,9.00
2018-09-30T06:30:51.360Z,9.50
2018-09-30T06:35:54.382Z,9.80
2018-09-30T06:40:57.380Z,10.20
2018-09-30T06:46:00.506Z,10.70
2018-09-30T06:51:03.608Z,11.20
2018-09-30T06:56:06.540Z,11.40
2018-09-30T07:01:09.551Z,11.30
2018-09-30T07:06:12.728Z,10.70
2018-09-30T07:11:15.950Z,11.50
2018-09-30T07:16:19.038Z,11.00
2018-09-30T07:21:22.367Z,11.60
2018-09-30T07:26:25.593Z,11.70
2018-09-30T07:31:29.324Z,11.60
2018-09-30T07:36:32.376Z,12.00
2018-09-30T07:41:35.716Z,12.00
2018-09-30T07:46:38.839Z,12.40
2018-09-30T07:51:41.857Z,12.10
2018-09-30T07:56:44.911Z,12.10
2018-09-30T08:01:47.988Z,12.10
2018-09-30T08:06:51.364Z,12.10
2018-09-30T08:11:54.433Z,11.60
2018-09-30T08:16:57.535Z,11.50
2018-09-30T08:22:00.855Z,11.70
2018-09-30T08:27:03.917Z,12.00
2018-09-30T08:32:07.075Z,12.20
2018-09-30T08:37:10.266Z,12.20
2018-09-30T08:42:13.427Z,12.20
2018-09-30T08:47:16.502Z,12.10
2018-09-30T08:52:19.607Z,12.00
2018-09-30T08:57:22.712Z,12.30
2018-09-30T09:02:26.014Z,12.30
2018-09-30T09:07:29.057Z,12.30
2018-09-30T09:12:32.170Z,12.70
2018-09-30T09:17:35.403Z,12.70
2018-09-30T09:22:38.457Z,12.70
2018-09-30T09:27:41.734Z,12.80
2018-09-30T09:32:45.092Z,12.80
2018-09-30T09:37:48.203Z,12.80
2018-09-30T09:42:51.258Z,13.00
2018-09-30T09:47:54.405Z,13.00
2018-09-30T09:52:57.465Z,13.10
2018-09-30T09:58:00.451Z,13.40
2018-09-30T10:03:03.507Z,13.90
2018-09-30T10:08:07.947Z,13.70
2018-09-30T10:13:10.984Z,14.00
2018-09-30T10:18:14.065Z,14.40
2018-09-30T10:23:17.143Z,14.40
2018-09-30T10:28:20.166Z,14.50
2018-09-30T10:33:23.163Z,14.80
2018-09-30T10:38:26.263Z,14.90
2018-09-30T10:43:29.302Z,14.90
2018-09-30T10:48:32.756Z,14.90
2018-09-30T10:53:35.973Z,15.20
2018-09-30T10:58:39.128Z,15.30
2018-09-30T11:09:27.534Z,15.20
2018-09-30T11:14:30.582Z,15.10
2018-09-30T11:19:33.724Z,15.20
2018-09-30T11:24:36.826Z,15.50
2018-09-30T11:29:39.855Z,15.80
2018-09-30T11:34:43.035Z,15.70
2018-09-30T11:39:46.164Z,15.80
2018-09-30T11:44:49.604Z,15.60
2018-09-30T11:49:52.810Z,16.00
2018-09-30T11:54:55.842Z,16.30
2018-09-30T11:59:58.864Z,16.10
2018-09-30T12:05:01.949Z,16.20
2018-09-30T12:10:05.103Z,16.60
2018-09-30T12:15:08.772Z,16.70
2018-09-30T12:20:11.832Z,16.50
2018-09-30T12:25:14.895Z,16.40
2018-09-30T12:30:17.993Z,16.60
2018-09-30T12:35:21.053Z,16.60
2018-09-30T12:40:24.155Z,16.80
2018-09-30T12:45:27.378Z,16.60
2018-09-30T12:50:30.566Z,16.60
2018-09-30T12:55:33.648Z,16.60
2018-09-30T13:00:36.699Z,16.70
2018-09-30T13:05:39.873Z,17.00
2018-09-30T13:10:42.920Z,17.00
2018-09-30T13:15:45.972Z,16.90
2018-09-30T13:20:49.044Z,17.00
2018-09-30T13:25:52.232Z,17.20
2018-09-30T13:30:55.562Z,17.20
2018-09-30T13:35:58.802Z,17.50
2018-09-30T13:41:02.058Z,17.50
2018-09-30T13:46:05.292Z,17.60
2018-09-30T13:51:08.395Z,17.50
2018-09-30T13:56:11.575Z,17.50
2018-09-30T14:01:14.586Z,17.60
2018-09-30T14:06:17.596Z,17.70
2018-09-30T14:11:20.663Z,17.80
2018-09-30T14:16:23.697Z,17.70
2018-09-30T14:21:26.731Z,18.00
2018-09-30T14:26:29.839Z,17.90
2018-09-30T14:31:32.867Z,17.90
2018-09-30T14:36:36.035Z,17.90
2018-09-30T14:41:39.201Z,17.80
2018-09-30T14:46:42.350Z,17.60
2018-09-30T14:51:45.387Z,17.70
2018-09-30T14:56:48.427Z,17.70
2018-09-30T15:01:51.480Z,17.70
2018-09-30T15:06:54.715Z,17.60
2018-09-30T15:11:57.853Z,17.50
2018-09-30T15:17:00.899Z,17.70
2018-09-30T15:22:04.698Z,17.70
2018-09-30T15:27:07.764Z,17.70
2018-09-30T15:32:10.770Z,17.50
2018-09-30T15:37:13.819Z,17.40
2018-09-30T15:42:17.060Z,17.30
2018-09-30T15:47:20.444Z,17.40
2018-09-30T15:52:23.525Z,17.20
2018-09-30T15:57:26.636Z,17.10
2018-09-30T16:02:29.657Z,17.10
2018-09-30T16:07:32.746Z,17.00
2018-09-30T16:12:35.791Z,16.80
2018-09-30T16:17:38.927Z,16.80
2018-09-30T16:22:42.018Z,16.80
2018-09-30T16:27:45.165Z,16.60
2018-09-30T16:32:48.178Z,16.50
2018-09-30T16:37:51.209Z,16.40
2018-09-30T16:42:54.224Z,16.30
2018-09-30T16:47:57.384Z,16.00
2018-09-30T16:53:00.520Z,15.80
2018-09-30T16:58:03.599Z,15.50
2018-09-30T17:03:06.945Z,15.10
2018-09-30T17:08:10.033Z,14.60
2018-09-30T17:13:13.100Z,14.40
2018-09-30T17:18:16.150Z,14.20
2018-09-30T17:23:19.354Z,14.00
2018-09-30T17:28:22.611Z,13.80
2018-09-30T17:33:25.724Z,13.60
2018-09-30T17:38:28.835Z,13.40
2018-09-30T17:43:32.030Z,13.20
2018-09-30T17:48:35.040Z,13.00
2018-09-30T17:53:38.114Z,13.10
2018-09-30T17:58:41.212Z,13.10
2018-09-30T18:03:44.243Z,12.90
2018-09-30T18:08:47.432Z,12.90
2018-09-30T18:13:50.408Z,12.70
2018-09-30T18:18:53.397Z,12.60
2018-09-30T18:23:56.789Z,12.40
2018-09-30T18:28:59.847Z,12.20
2018-09-30T18:34:02.783Z,12.20
2018-09-30T18:39:09.090Z,12.10
2018-09-30T18:44:12.311Z,11.90
2018-09-30T18:49:15.754Z,11.90
2018-09-30T18:54:19.232Z,11.80
2018-09-30T18:59:22.644Z,11.60
2018-09-30T19:04:26.059Z,11.70
2018-09-30T19:09:29.473Z,11.90
2018-09-30T19:14:33.088Z,11.90
2018-09-30T19:19:36.505Z,11.50
2018-09-30T19:24:39.683Z,11.30
2018-09-30T19:29:42.631Z,11.10
2018-09-30T19:34:45.581Z,10.80
2018-09-30T19:39:48.552Z,10.80
2018-09-30T19:44:51.880Z,10.90
2018-09-30T19:49:55.100Z,11.30
2018-09-30T19:54:58.320Z,12.00
2018-09-30T20:00:04.156Z,12.40
2018-09-30T20:05:07.220Z,12.60
2018-09-30T20:10:10.331Z,12.50
2018-09-30T20:15:13.375Z,12.20
2018-09-30T20:20:16.560Z,11.70
2018-09-30T20:25:19.697Z,11.10
2018-09-30T20:30:22.966Z,10.90
2018-09-30T20:35:25.983Z,10.70
2018-09-30T20:40:29.012Z,10.50
2018-09-30T20:45:32.117Z,11.10
2018-09-30T20:50:35.248Z,11.80
2018-09-30T20:55:38.296Z,12.10
2018-09-30T21:00:41.329Z,12.30
2018-09-30T21:06:48.727Z,12.40
2018-09-30T21:11:51.734Z,12.30
2018-09-30T21:16:54.795Z,12.40
2018-09-30T21:21:57.808Z,12.60
2018-09-30T21:27:02.161Z,12.60
2018-09-30T21:32:06.032Z,12.50
2018-09-30T21:37:09.138Z,12.40
2018-09-30T21:42:12.167Z,12.30
2018-09-30T21:47:15.309Z,12.20
2018-09-30T21:52:18.379Z,11.80
2018-09-30T21:57:21.376Z,11.50
2018-09-30T22:02:24.445Z,11.40
2018-09-30T22:07:27.422Z,11.20
2018-09-30T22:12:30.463Z,11.00
2018-09-30T22:17:33.596Z,10.80
2018-09-30T22:22:36.640Z,10.60
2018-09-30T22:27:39.744Z,10.50
2018-09-30T22:32:42.741Z,10.50
2018-09-30T22:37:45.779Z,10.40
2018-09-30T22:42:48.797Z,10.30
2018-09-30T22:47:51.855Z,10.40
2018-09-30T22:52:54.886Z,10.40
2018-09-30T22:57:57.900Z,10.40
2018-09-30T23:03:03.541Z,10.60
2018-09-30T23:08:06.679Z,10.30
2018-09-30T23:13:09.680Z,10.10
2018-09-30T23:18:12.715Z,9.90
2018-09-30T23:23:15.726Z,9.60
2018-09-30T23:28:18.752Z,9.50
2018-09-30T23:33:21.801Z,9.40
2018-09-30T23:38:25.593Z,9.30
2018-09-30T23:43:28.764Z,9.30
2018-09-30T23:48:31.918Z,9.10
2018-09-30T23:53:35.933Z,9.00
2018-09-30T23:58:39.008Z,9.10
